Time;durP1;ratioP1;P1;durP2;ratioP2;P2;SDS_P1;SDS_P2;PMS_P1;PMS_P2;Temp;Humidity;BMP_temperature;BMP_pressure;BME280_temperature;BME280_humidity;BME280_pressure;Samples;Min_cycle;Max_cycle;Signal;HPM_P1;HPM_P2
2022/01/03 00:01:49;;;;;;;3.88;1.73;;;;;;;11.25;64.67;99369.59;10488106;28;20052;-71
2022/01/03 00:06:51;;;;;;;5.95;1.63;;;;;;;11.31;63.93;99364.91;10507753;28;20501;-71
2022/01/03 00:11:52;;;;;;;1.90;1.08;;;;;;;11.32;63.76;99365.75;10491224;28;20044;-72
2022/01/03 00:16:54;;;;;;;2.65;1.38;;;;;;;11.36;63.38;99377.84;10506572;28;20105;-71
2022/01/03 00:21:57;;;;;;;3.13;1.25;;;;;;;11.38;63.42;99365.50;10505571;28;20123;-71
2022/01/03 00:27:02;;;;;;;2.08;1.02;;;;;;;11.39;63.49;99363.72;10507931;28;20120;-71
2022/01/03 00:32:08;;;;;;;1.35;0.93;;;;;;;11.46;62.83;99334.38;10509002;28;20043;-71
2022/01/03 00:37:11;;;;;;;2.17;1.00;;;;;;;11.45;63.28;99342.38;10490196;28;20097;-70
2022/01/03 00:42:15;;;;;;;2.15;1.10;;;;;;;11.46;63.16;99323.88;10490760;28;20040;-72
2022/01/03 00:47:17;;;;;;;4.20;1.13;;;;;;;11.59;62.07;99308.34;10506660;28;20056;-71
2022/01/03 00:52:18;;;;;;;2.45;1.00;;;;;;;11.63;62.12;99299.38;10506854;28;20044;-72
2022/01/03 00:57:28;;;;;;;1.95;0.90;;;;;;;11.58;62.27;99307.50;10486730;28;20092;-70
2022/01/03 01:02:35;;;;;;;2.97;1.33;;;;;;;11.60;62.22;99302.19;10486202;28;20032;-71
2022/01/03 01:07:38;;;;;;;;;;;;;;;11.69;61.46;99296.47;10469400;28;20399;-71
2022/01/03 01:12:43;;;;;;;5.00;1.50;;;;;;;11.57;62.71;99307.59;10504704;28;20378;-71
2022/01/03 01:17:45;;;;;;;2.65;0.90;;;;;;;11.58;63.98;99338.25;10484011;28;20048;-71
2022/01/03 01:22:49;;;;;;;2.75;1.10;;;;;;;11.20;68.55;99353.16;10484369;28;20036;-71
2022/01/03 01:27:53;;;;;;;3.95;1.33;;;;;;;10.71;73.76;99357.94;10484656;28;20137;-70
2022/01/03 01:33:09;;;;;;;3.15;1.10;;;;;;;10.35;73.60;99387.47;10486506;28;20044;-70
2022/01/03 01:38:15;;;;;;;1.48;0.50;;;;;;;10.12;74.44;99419.91;10469081;28;20135;-70
2022/01/03 01:43:29;;;;;;;1.08;0.50;;;;;;;9.81;74.92;99418.47;10484258;28;20444;-70
2022/01/03 01:48:34;;;;;;;7.55;0.77;;;;;;;9.38;76.92;99400.00;10483414;28;20060;-69
2022/01/03 01:53:42;;;;;;;0.45;0.20;;;;;;;9.09;78.77;99407.19;10484350;28;20064;-69
2022/01/03 01:58:53;;;;;;;0.63;0.32;;;;;;;8.87;79.33;99395.75;10485993;28;20068;-70
2022/01/03 02:03:56;;;;;;;1.48;0.20;;;;;;;8.74;79.21;99397.94;10482457;28;20048;-70
2022/01/03 02:09:06;;;;;;;0.47;0.20;;;;;;;8.53;80.87;99399.50;10483270;28;20072;-69
2022/01/03 02:14:10;;;;;;;0.45;0.20;;;;;;;8.41;80.27;99368.47;10482806;28;20113;-70
2022/01/03 02:19:13;;;;;;;1.45;0.10;;;;;;;8.36;81.50;99358.13;10483049;28;20048;-69
2022/01/03 02:24:14;;;;;;;1.48;0.20;;;;;;;8.38;79.24;99358.97;10500447;28;20079;-70
2022/01/03 02:29:16;;;;;;;2.13;0.20;;;;;;;8.62;79.40;99354.66;10482825;28;20525;-70
2022/01/03 02:34:19;;;;;;;0.10;0.10;;;;;;;8.51;79.85;99362.03;10500690;28;20048;-70
2022/01/03 02:39:20;;;;;;;0.30;0.10;;;;;;;8.60;79.60;99382.69;10484227;28;20040;-70
2022/01/03 02:44:24;;;;;;;0.60;0.20;;;;;;;8.51;79.24;99383.00;10482352;28;20041;-69
2022/01/03 02:49:26;;;;;;;0.25;0.10;;;;;;;8.51;78.71;99380.38;10482459;28;20136;-70
2022/01/03 02:54:27;;;;;;;0.80;0.20;;;;;;;8.51;78.03;99377.75;10482430;28;20094;-70
2022/01/03 02:59:30;;;;;;;1.40;0.17;;;;;;;8.51;77.61;99372.53;10482455;28;20079;-71
2022/01/03 03:04:32;;;;;;;0.95;0.15;;;;;;;8.52;76.61;99382.94;10501804;28;20421;-70
2022/01/03 03:09:35;;;;;;;1.08;0.10;;;;;;;8.58;76.59;99366.13;10499692;28;20044;-70
2022/01/03 03:14:38;;;;;;;1.00;0.20;;;;;;;8.51;76.81;99372.53;10488047;28;20049;-70
2022/01/03 03:19:56;;;;;;;1.15;0.13;;;;;;;8.63;76.40;99363.38;10507628;28;20094;-71
2022/01/03 03:25:06;;;;;;;0.70;0.30;;;;;;;8.66;76.71;99350.16;10491451;28;20397;-70
2022/01/03 03:30:08;;;;;;;1.50;0.38;;;;;;;8.47;78.11;99357.81;10488684;28;20044;-71
2022/01/03 03:35:10;;;;;;;1.35;0.30;;;;;;;8.50;77.87;99344.59;10488695;28;20044;-71
2022/01/03 03:40:13;;;;;;;0.57;0.20;;;;;;;8.47;78.11;99355.19;10489340;28;20111;-70
2022/01/03 03:45:16;;;;;;;1.90;0.30;;;;;;;8.41;77.68;99345.78;10490524;28;20413;-71
2022/01/03 03:50:20;;;;;;;1.25;0.32;;;;;;;8.32;78.59;99351.28;10507181;28;20035;-70
2022/01/03 03:55:28;;;;;;;1.60;0.43;;;;;;;8.31;78.55;99354.81;10473728;28;20048;-70
2022/01/03 04:00:33;;;;;;;0.88;0.30;;;;;;;8.43;77.91;99359.69;10471588;28;20037;-71
2022/01/03 04:05:38;;;;;;;0.65;0.20;;;;;;;8.43;77.58;99359.69;10472749;28;20072;-71
2022/01/03 04:10:40;;;;;;;1.23;0.30;;;;;;;8.44;77.62;99363.16;10487361;28;20527;-72
2022/01/03 04:15:41;;;;;;;1.40;0.40;;;;;;;8.41;77.74;99364.13;10504239;28;20044;-71
2022/01/03 04:20:44;;;;;;;0.90;0.20;;;;;;;8.57;76.91;99359.19;10486542;28;20068;-71
2022/01/03 04:25:46;;;;;;;1.13;0.30;;;;;;;8.49;77.26;99369.94;10503432;28;20040;-71
2022/01/03 04:30:48;;;;;;;0.90;0.28;;;;;;;8.45;77.03;99376.19;10494099;22;20053;-72
2022/01/03 04:35:50;;;;;;;1.30;0.20;;;;;;;8.57;76.47;99374.91;10445910;28;20053;-72
2022/01/03 04:40:52;;;;;;;3.50;0.40;;;;;;;8.51;76.79;99386.47;10446118;28;20072;-72
2022/01/03 04:45:57;;;;;;;1.83;0.40;;;;;;;8.51;76.82;99396.94;10463155;28;20051;-73
2022/01/03 04:50:59;;;;;;;1.42;0.30;;;;;;;8.67;76.44;99392.03;10460875;28;20041;-73
2022/01/03 04:56:00;;;;;;;1.00;0.25;;;;;;;8.70;76.58;99384.06;10461801;28;20069;-73
2022/01/03 05:01:03;;;;;;;0.43;0.22;;;;;;;8.84;75.63;99386.22;10461505;28;20441;-72
2022/01/03 05:06:05;;;;;;;0.85;0.30;;;;;;;8.94;75.07;99385.00;10445495;28;20048;-72
2022/01/03 05:11:07;;;;;;;2.78;0.50;;;;;;;8.87;74.77;99377.41;10443103;28;20139;-74
2022/01/03 05:16:09;;;;;;;1.10;0.40;;;;;;;8.92;74.04;99392.03;10443209;28;20128;-73
2022/01/03 05:21:13;;;;;;;0.93;0.30;;;;;;;8.78;74.21;99404.78;10442596;28;20482;-72
2022/01/03 05:26:18;;;;;;;1.00;0.30;;;;;;;8.87;73.38;99411.47;10425909;28;20505;-72
2022/01/03 05:31:20;;;;;;;1.58;0.40;;;;;;;8.83;73.81;99424.66;10441955;28;20041;-73
2022/01/03 05:36:23;;;;;;;2.97;0.52;;;;;;;8.94;73.79;99419.06;10442760;28;20099;-72
2022/01/03 05:41:29;;;;;;;1.65;0.45;;;;;;;8.98;73.12;99430.28;10442467;28;20410;-73
2022/01/03 05:46:31;;;;;;;1.10;0.50;;;;;;;8.90;72.93;99430.56;10443097;28;20041;-73
2022/01/03 05:51:34;;;;;;;1.40;0.60;;;;;;;8.99;72.68;99418.91;10442098;28;20576;-73
2022/01/03 05:56:36;;;;;;;1.73;0.63;;;;;;;9.02;72.02;99431.88;10441365;28;20135;-73
2022/01/03 06:01:41;;;;;;;4.03;0.90;;;;;;;9.03;71.20;99451.94;10440692;28;20087;-73
2022/01/03 06:06:54;;;;;;;1.95;0.70;;;;;;;8.97;74.12;99465.28;10442401;28;20045;-72
2022/01/03 06:12:07;;;;;;;6.63;1.13;;;;;;;8.61;77.35;99476.06;10442022;28;20076;-72
2022/01/03 06:17:17;;;;;;;3.95;0.90;;;;;;;8.63;77.75;99486.50;10442232;28;20047;-72
2022/01/03 06:22:21;;;;;;;4.63;1.50;;;;;;;8.51;78.47;99483.38;10444275;28;20144;-72
2022/01/03 06:27:28;;;;;;;3.17;0.77;;;;;;;8.49;76.80;99474.69;10442979;28;20055;-73
2022/01/03 06:32:30;;;;;;;2.85;0.70;;;;;;;8.37;76.35;99471.63;10461585;28;20115;-73
2022/01/03 06:37:33;;;;;;;3.50;1.00;;;;;;;8.43;75.39;99485.38;10459867;28;20456;-73
2022/01/03 06:42:43;;;;;;;2.22;0.77;;;;;;;8.50;74.33;99491.28;10441974;28;20445;-73
2022/01/03 06:47:48;;;;;;;2.28;0.60;;;;;;;8.39;74.62;99493.38;10447771;28;20514;-73
2022/01/03 06:52:50;;;;;;;4.25;0.70;;;;;;;8.43;73.47;99498.47;10452321;28;20037;-73
2022/01/03 06:57:52;;;;;;;3.20;0.80;;;;;;;8.43;73.53;99506.34;10451299;28;20044;-73
2022/01/03 07:02:55;;;;;;;3.15;0.60;;;;;;;8.40;72.93;99516.91;10468868;28;20037;-73
2022/01/03 07:07:57;;;;;;;4.18;0.93;;;;;;;8.56;71.27;99520.75;10468157;28;20068;-73
2022/01/03 07:13:00;;;;;;;2.42;0.80;;;;;;;8.46;72.34;99521.13;10470125;28;20051;-74
2022/01/03 07:23:26;;;;;;;4.38;0.60;;;;;;;8.54;71.50;99529.56;10469321;28;20053;-73
2022/01/03 07:28:28;;;;;;;5.20;0.95;;;;;;;8.59;70.98;99541.63;10468804;28;20047;-73
2022/01/03 07:33:32;;;;;;;2.58;1.00;;;;;;;8.61;70.84;99551.19;10468635;28;20101;-74
2022/01/03 07:38:46;;;;;;;3.50;0.80;;;;;;;8.53;70.62;99548.81;10451799;28;20467;-74
2022/01/03 07:43:51;;;;;;;3.65;1.00;;;;;;;8.59;69.57;99546.88;10434894;28;20495;-74
2022/01/03 07:48:52;;;;;;;3.67;0.85;;;;;;;8.45;70.53;99548.19;10470803;28;20380;-73
2022/01/03 07:53:57;;;;;;;2.33;0.90;;;;;;;8.61;70.01;99553.81;10469773;28;20037;-74
2022/01/03 07:58:59;;;;;;;1.70;0.65;;;;;;;8.53;69.83;99549.66;10453520;28;20132;-75
2022/01/03 08:04:01;;;;;;;3.95;0.80;;;;;;;8.50;69.86;99556.75;10469102;28;20067;-73
2022/01/03 08:09:18;;;;;;;3.85;1.10;;;;;;;8.50;70.06;99557.66;10451873;28;20406;-73
2022/01/03 08:14:20;;;;;;;4.00;0.93;;;;;;;8.53;69.95;99561.91;10466913;28;20128;-73
2022/01/03 08:19:22;;;;;;;5.97;1.00;;;;;;;8.65;69.21;99561.53;10466708;28;20414;-73
2022/01/03 08:24:24;;;;;;;3.63;1.35;;;;;;;8.70;68.86;99569.25;10467263;28;20120;-73
2022/01/03 08:29:26;;;;;;;3.65;0.80;;;;;;;8.80;67.62;99570.66;10466293;28;20044;-73
2022/01/03 08:34:28;;;;;;;5.03;1.10;;;;;;;8.70;68.47;99572.72;10447876;28;20402;-72
2022/01/03 08:39:30;;;;;;;3.35;0.90;;;;;;;8.61;68.49;99574.78;10463790;28;20063;-72
2022/01/03 08:44:32;;;;;;;4.63;0.98;;;;;;;8.72;67.69;99588.38;10447897;28;20048;-72
2022/01/03 08:49:35;;;;;;;5.20;0.90;;;;;;;8.76;67.31;99592.63;10465754;28;20100;-73
2022/01/03 08:54:36;;;;;;;3.22;1.05;;;;;;;8.73;67.39;99603.22;10447393;28;20049;-73
2022/01/03 08:59:39;;;;;;;3.70;0.88;;;;;;;8.80;66.81;99594.25;10438751;28;20046;-73
2022/01/03 09:04:40;;;;;;;4.35;1.05;;;;;;;8.87;66.38;99605.41;10456068;28;20052;-72
2022/01/03 09:09:42;;;;;;;4.38;1.30;;;;;;;8.95;65.87;99606.88;10404741;28;20049;-73
2022/01/03 09:14:44;;;;;;;4.68;1.02;;;;;;;9.16;65.40;99614.94;10430913;28;20053;-73
2022/01/03 09:19:46;;;;;;;3.75;0.90;;;;;;;9.23;64.28;99613.84;10422086;28;20435;-72
2022/01/03 09:28:49;;;;;;;4.00;1.00;;;;;;;9.37;63.22;99610.78;10442346;28;20451;-72
2022/01/03 09:30:16;;;;;;;4.63;0.95;;;;;;;9.44;63.22;99607.03;10445414;28;20045;-73
2022/01/03 09:35:18;;;;;;;4.07;0.98;;;;;;;9.32;63.63;99624.03;10427891;28;20045;-73
2022/01/03 09:40:20;;;;;;;5.18;1.20;;;;;;;9.58;62.39;99626.63;10422445;28;20115;-72
2022/01/03 09:45:32;;;;;;;12.88;1.52;;;;;;;9.63;62.95;99626.47;10387982;28;20053;-73
2022/01/03 09:50:34;;;;;;;4.43;1.30;;;;;;;9.74;61.53;99613.84;10453616;28;20037;-73
2022/01/03 09:55:37;;;;;;;3.67;0.95;;;;;;;9.87;60.93;99614.25;10464972;28;20341;-74
2022/01/03 10:00:39;;;;;;;4.28;1.10;;;;;;;9.74;60.44;99610.34;10440900;28;20445;-74
2022/01/03 10:05:41;;;;;;;4.43;1.17;;;;;;;9.85;59.88;99616.94;10408424;28;20077;-74
2022/01/03 10:10:45;;;;;;;4.45;1.10;;;;;;;9.83;59.22;99616.16;10413742;28;20415;-75
2022/01/03 10:15:47;;;;;;;4.50;1.00;;;;;;;9.93;58.65;99611.44;10465372;28;20405;-74
2022/01/03 10:20:49;;;;;;;3.75;0.90;;;;;;;9.92;59.23;99609.72;10465993;28;20041;-74
2022/01/03 10:25:51;;;;;;;4.97;1.17;;;;;;;9.96;59.38;99606.06;10473760;28;20395;-74
2022/01/03 10:30:53;;;;;;;3.13;1.10;;;;;;;9.80;60.20;99607.53;10466619;22;20049;-71
2022/01/03 10:35:56;;;;;;;4.28;1.00;;;;;;;9.88;59.46;99589.75;10425979;28;20053;-71
2022/01/03 10:41:11;;;;;;;3.88;0.82;;;;;;;10.02;58.97;99586.63;10424994;28;20041;-71
2022/01/03 10:46:21;;;;;;;5.38;1.30;;;;;;;10.13;58.31;99581.81;10424469;28;20119;-71
2022/01/03 10:51:26;;;;;;;8.63;1.30;;;;;;;10.08;57.49;99586.38;10426369;28;20132;-71
2022/01/03 10:56:33;;;;;;;3.53;0.80;;;;;;;10.11;57.94;99568.75;10408961;28;20041;-71
2022/01/03 11:01:37;;;;;;;3.03;0.70;;;;;;;10.01;58.16;99559.50;10410522;28;20046;-72
2022/01/03 11:11:47;;;;;;;3.30;0.80;;;;;;;10.21;56.51;99557.88;10386273;28;20124;-72
2022/01/03 11:16:49;;;;;;;5.15;1.17;;;;;;;10.47;56.65;99555.16;10422032;28;20061;-71
2022/01/03 11:21:50;;;;;;;3.42;0.85;;;;;;;11.37;53.91;99551.44;10401793;28;20433;-72
2022/01/03 11:26:55;;;;;;;3.20;0.70;;;;;;;11.82;52.00;99557.41;10420012;28;20124;-71
2022/01/03 11:31:59;;;;;;;3.13;0.93;;;;;;;12.24;51.84;99544.13;10421046;28;20418;-71
2022/01/03 11:37:03;;;;;;;3.67;1.13;;;;;;;12.66;50.19;99555.34;10421051;28;20103;-72
2022/01/03 11:42:06;;;;;;;3.80;0.90;;;;;;;11.65;52.83;99552.06;10421279;28;20042;-71
2022/01/03 11:47:11;;;;;;;4.70;1.00;;;;;;;11.02;54.11;99528.41;10420211;28;20053;-72
2022/01/03 11:52:15;;;;;;;3.83;1.00;;;;;;;10.47;56.56;99533.28;10420850;28;20045;-71
2022/01/03 11:57:26;;;;;;;4.68;1.05;;;;;;;10.69;55.80;99530.66;10419707;28;20073;-72
2022/01/03 12:07:55;;;;;;;4.72;1.10;;;;;;;10.47;56.58;99531.50;10421015;28;20614;-71
2022/01/03 12:12:59;;;;;;;5.97;1.17;;;;;;;10.46;57.41;99535.06;10382884;28;20041;-71
2022/01/03 12:18:01;;;;;;;4.03;1.10;;;;;;;10.32;57.19;99524.22;10389949;28;20291;-70
2022/01/03 12:23:03;;;;;;;2.83;0.70;;;;;;;10.58;57.17;99510.03;10419901;28;20049;-71
2022/01/03 12:28:07;;;;;;;3.70;0.80;;;;;;;10.48;56.85;99508.69;10376704;28;20148;-71
2022/01/03 12:33:11;;;;;;;3.63;1.10;;;;;;;10.43;56.80;99508.88;10377997;28;20060;-71
2022/01/03 12:38:18;;;;;;;6.05;0.90;;;;;;;10.38;57.15;99494.22;10408551;28;20041;-71
2022/01/03 12:43:44;;;;;;;4.67;0.97;;;;;;;10.37;57.18;99503.03;10382358;28;20042;-70
2022/01/03 12:48:51;;;;;;;4.55;1.30;;;;;;;10.46;57.79;99486.91;10390624;28;20057;-72
2022/01/03 12:53:53;;;;;;;4.25;0.98;;;;;;;10.43;57.74;99482.59;10420275;28;20091;-71
2022/01/03 12:58:59;;;;;;;4.20;0.93;;;;;;;10.31;58.59;99472.59;10413629;28;20045;-71
2022/01/03 13:04:17;;;;;;;5.55;1.10;;;;;;;10.33;56.90;99469.00;10366851;28;20495;-71
2022/01/03 13:09:27;;;;;;;3.25;1.30;;;;;;;10.25;57.76;99460.56;10497049;28;20791;-72
2022/01/03 13:14:29;;;;;;;4.38;0.90;;;;;;;10.13;58.41;99461.00;10486477;28;20044;-70
2022/01/03 13:19:35;;;;;;;4.57;0.75;;;;;;;10.01;59.38;99457.09;10473672;28;20457;-70
2022/01/03 13:24:40;;;;;;;;;;;;;;;10.06;59.07;99449.88;10466886;28;20048;-70
2022/01/03 13:29:43;;;;;;;3.85;0.95;;;;;;;10.18;58.44;99452.94;10452065;28;19927;-71
2022/01/03 13:34:47;;;;;;;2.63;0.77;;;;;;;10.15;59.08;99451.31;10455337;28;20044;-71
2022/01/03 13:39:50;;;;;;;4.13;1.17;;;;;;;10.12;59.33;99454.03;10450046;28;20041;-70
2022/01/03 13:49:55;;;;;;;4.00;1.05;;;;;;;10.02;60.98;99455.31;10450002;28;20075;-69
2022/01/03 13:55:02;;;;;;;4.28;0.90;;;;;;;10.02;61.43;99448.28;10448812;28;20402;-69
2022/01/03 14:00:06;;;;;;;3.45;0.90;;;;;;;9.98;61.73;99430.94;10449680;28;20410;-70
2022/01/03 14:05:09;;;;;;;4.15;0.93;;;;;;;9.81;62.54;99431.59;10450874;28;20037;-71
2022/01/03 14:10:11;;;;;;;4.78;1.58;;;;;;;9.83;62.43;99426.31;10450749;28;20048;-69
2022/01/03 14:15:15;;;;;;;4.22;0.98;;;;;;;9.94;63.11;99423.25;10448222;28;20053;-70
2022/01/03 14:20:22;;;;;;;3.15;1.00;;;;;;;9.83;64.06;99415.81;10424849;28;20095;-70
2022/01/03 14:25:26;;;;;;;4.03;1.15;;;;;;;9.75;64.15;99405.59;10403917;28;20048;-70
2022/01/03 14:30:32;;;;;;;2.17;0.90;;;;;;;9.69;64.35;99404.97;10421615;28;20080;-69
2022/01/03 14:35:41;;;;;;;3.85;1.08;;;;;;;9.59;64.63;99412.31;10422506;28;20041;-70
2022/01/03 14:40:48;;;;;;;2.97;0.90;;;;;;;9.51;65.23;99415.22;10425179;28;20459;-69
2022/01/03 14:45:52;;;;;;;3.78;1.00;;;;;;;9.53;65.50;99407.31;10445550;28;20037;-69
2022/01/03 14:51:11;;;;;;;6.15;0.95;;;;;;;9.30;66.39;99395.91;10438357;28;20049;-70
2022/01/03 14:56:26;;;;;;;5.93;1.05;;;;;;;9.24;66.61;99408.38;10420959;28;20048;-70
2022/01/03 15:01:29;;;;;;;2.80;1.00;;;;;;;9.38;66.45;99394.75;10379360;28;20077;-70
2022/01/03 15:06:31;;;;;;;4.78;1.08;;;;;;;9.17;67.46;99393.81;10378703;28;20049;-70
2022/01/03 15:11:33;;;;;;;4.70;1.52;;;;;;;9.19;67.03;99390.19;10362040;28;20042;-70
2022/01/03 15:16:34;;;;;;;3.85;0.88;;;;;;;9.13;67.19;99376.47;10443762;28;20079;-70
2022/01/03 15:21:38;;;;;;;3.92;0.90;;;;;;;9.26;66.36;99375.97;10460618;28;20124;-70
2022/01/03 15:26:39;;;;;;;3.60;1.05;;;;;;;9.28;66.88;99381.97;10460933;28;20053;-69
2022/01/03 15:31:41;;;;;;;2.75;0.90;;;;;;;9.20;67.47;99383.19;10459925;28;20045;-70
2022/01/03 15:36:43;;;;;;;1.85;0.60;;;;;;;9.34;66.95;99387.03;10460286;28;20044;-70
2022/01/03 15:41:46;;;;;;;2.80;1.00;;;;;;;9.30;66.92;99372.31;10460239;28;20045;-71
2022/01/03 15:46:48;;;;;;;3.78;0.82;;;;;;;9.30;68.33;99381.94;10434787;28;20041;-71
2022/01/03 15:51:55;;;;;;;4.78;1.40;;;;;;;9.35;69.74;99380.00;10405623;28;20446;-70
2022/01/03 15:56:57;;;;;;;6.90;1.38;;;;;;;9.40;70.82;99379.84;10417088;28;20045;-71
2022/01/03 16:02:00;;;;;;;4.90;2.35;;;;;;;9.21;73.34;99383.13;10417289;28;20045;-71
2022/01/03 16:07:03;;;;;;;4.88;2.20;;;;;;;9.26;73.88;99372.47;10419199;28;20047;-69
2022/01/03 16:12:05;;;;;;;4.90;1.20;;;;;;;8.92;76.62;99357.13;10417138;28;20052;-71
2022/01/03 16:17:06;;;;;;;5.30;2.55;;;;;;;8.56;77.32;99353.09;10416722;28;20053;-71
2022/01/03 16:22:08;;;;;;;5.40;1.63;;;;;;;8.63;76.43;99364.22;10418728;28;20387;-71
2022/01/03 16:27:10;;;;;;;3.95;1.13;;;;;;;8.61;76.37;99357.34;10417020;28;20067;-70
2022/01/03 16:32:15;;;;;;;6.28;1.40;;;;;;;8.53;75.80;99352.34;10437172;22;20052;-71
2022/01/03 16:37:18;;;;;;;5.32;1.38;;;;;;;8.64;75.02;99354.63;10464179;28;20068;-72
2022/01/03 16:42:22;;;;;;;4.57;1.75;;;;;;;8.90;73.02;99346.69;10463079;28;20057;-72
2022/01/03 16:47:24;;;;;;;3.28;0.98;;;;;;;8.90;73.17;99336.22;10463393;28;20037;-71
2022/01/03 16:52:26;;;;;;;4.22;1.20;;;;;;;8.84;73.00;99323.31;10465593;28;20049;-73
2022/01/03 16:57:28;;;;;;;4.65;1.45;;;;;;;9.02;72.28;99317.38;10464816;28;20045;-73
2022/01/03 17:02:32;;;;;;;4.45;1.58;;;;;;;9.03;71.97;99306.03;10462704;28;20029;-73
2022/01/03 17:07:34;;;;;;;3.63;2.00;;;;;;;9.05;71.76;99312.03;10462377;28;20068;-72
2022/01/03 17:12:37;;;;;;;4.28;1.40;;;;;;;9.25;70.36;99300.81;10465320;28;20053;-72
2022/01/03 17:17:39;;;;;;;5.45;1.58;;;;;;;9.08;71.28;99298.84;10462634;28;20037;-73
2022/01/03 17:22:41;;;;;;;4.88;1.33;;;;;;;9.02;71.46;99316.53;10463219;28;20498;-72
2022/01/03 17:27:43;;;;;;;3.72;1.40;;;;;;;9.07;71.29;99310.25;10461186;28;20067;-71
2022/01/03 17:32:45;;;;;;;2.20;0.88;;;;;;;9.14;70.36;99302.13;10463839;28;20076;-71
2022/01/03 17:37:47;;;;;;;3.10;0.88;;;;;;;9.15;70.21;99278.47;10466912;28;20410;-72
2022/01/03 17:42:48;;;;;;;3.03;1.08;;;;;;;9.16;70.13;99284.56;10464823;28;20151;-73
2022/01/03 17:47:51;;;;;;;4.68;1.48;;;;;;;9.30;69.11;99293.63;10462914;28;20384;-72
2022/01/03 17:52:53;;;;;;;2.05;0.82;;;;;;;9.25;68.68;99281.59;10465964;28;20048;-72
2022/01/03 17:57:55;;;;;;;2.17;0.80;;;;;;;9.14;69.56;99283.78;10471580;28;20067;-72
2022/01/03 18:02:56;;;;;;;2.22;0.75;;;;;;;9.13;68.90;99280.31;10469379;28;20049;-71
2022/01/03 18:07:58;;;;;;;2.38;1.00;;;;;;;9.17;68.63;99262.69;10468765;28;20041;-73
2022/01/03 18:13:03;;;;;;;2.88;1.23;;;;;;;9.24;67.92;99267.63;10469869;28;20075;-72
2022/01/03 18:18:05;;;;;;;2.55;0.80;;;;;;;9.21;68.00;99269.50;10472063;28;20045;-72
2022/01/03 18:23:07;;;;;;;4.07;0.90;;;;;;;9.18;67.62;99264.41;10471436;28;20044;-72
2022/01/03 18:28:09;;;;;;;3.72;0.82;;;;;;;9.27;66.82;99256.19;10471413;28;20429;-73
2022/01/03 18:33:16;;;;;;;1.60;0.73;;;;;;;9.05;68.09;99250.91;10470631;28;20045;-72
2022/01/03 18:38:18;;;;;;;3.58;0.60;;;;;;;9.02;68.14;99237.91;10472332;28;20051;-72
2022/01/03 18:43:19;;;;;;;3.22;1.05;;;;;;;8.93;67.83;99233.84;10473922;28;20071;-73
2022/01/03 18:48:21;;;;;;;4.40;0.90;;;;;;;9.04;67.28;99221.22;10471331;28;20106;-73
2022/01/03 18:53:23;;;;;;;1.50;0.63;;;;;;;8.98;67.08;99212.72;10470265;28;20037;-73
2022/01/03 18:58:24;;;;;;;2.78;0.70;;;;;;;9.04;66.94;99209.88;10471053;28;20151;-73
2022/01/03 19:03:26;;;;;;;2.75;1.08;;;;;;;9.02;66.91;99215.16;10474697;28;20498;-72
2022/01/03 19:08:28;;;;;;;1.60;1.05;;;;;;;9.06;66.80;99210.66;10471469;28;20044;-73
2022/01/03 19:13:29;;;;;;;2.78;1.00;;;;;;;8.99;67.00;99214.44;10467502;28;20055;-72
2022/01/03 19:18:31;;;;;;;3.92;1.00;;;;;;;9.07;66.86;99199.25;10499970;28;20044;-73
2022/01/03 19:23:34;;;;;;;2.60;0.70;;;;;;;9.10;67.47;99186.88;10470216;28;20128;-73
2022/01/03 19:28:46;;;;;;;3.90;1.00;;;;;;;8.96;68.85;99181.31;10468124;28;20033;-74
2022/01/03 19:38:49;;;;;;;2.78;1.23;;;;;;;9.01;69.20;99165.41;10467200;28;20072;-72
2022/01/03 19:43:53;;;;;;;3.08;0.80;;;;;;;8.99;69.41;99165.50;10469669;28;20045;-73
2022/01/03 19:48:55;;;;;;;2.72;0.90;;;;;;;8.94;69.50;99179.66;10464531;28;20044;-73
2022/01/03 19:53:57;;;;;;;1.90;0.77;;;;;;;8.90;69.56;99168.47;10466341;28;20132;-74
2022/01/03 19:58:58;;;;;;;1.38;0.57;;;;;;;8.87;71.33;99172.97;10466131;28;20036;-72
2022/01/03 20:04:00;;;;;;;3.50;1.20;;;;;;;8.72;73.32;99156.06;10467890;28;20498;-72
2022/01/03 20:09:02;;;;;;;2.17;0.73;;;;;;;8.52;75.95;99157.66;10464884;28;20048;-72
2022/01/03 20:14:06;;;;;;;3.83;0.90;;;;;;;8.34;77.38;99160.94;10466139;28;20049;-72
2022/01/03 20:19:07;;;;;;;2.45;0.80;;;;;;;8.28;78.27;99158.56;10466061;28;20052;-73
2022/01/03 20:24:09;;;;;;;2.25;0.90;;;;;;;8.39;77.63;99138.09;10466342;28;20405;-73
2022/01/03 20:29:11;;;;;;;3.47;0.60;;;;;;;8.18;78.81;99121.34;10468112;28;20051;-73
2022/01/03 20:34:12;;;;;;;0.82;0.57;;;;;;;8.10;78.81;99126.00;10466055;28;20045;-73
2022/01/03 20:39:14;;;;;;;2.60;0.60;;;;;;;8.07;79.37;99131.38;10465731;28;20045;-73
2022/01/03 20:44:16;;;;;;;1.33;0.57;;;;;;;7.97;80.77;99128.25;10465302;28;20524;-73
2022/01/03 20:49:17;;;;;;;2.05;0.60;;;;;;;7.84;82.41;99119.13;10466463;28;20037;-71
2022/01/03 20:54:23;;;;;;;0.65;0.40;;;;;;;7.71;83.54;99136.16;10463219;28;20048;-73
2022/01/03 20:59:26;;;;;;;2.38;0.65;;;;;;;7.65;84.03;99134.56;10463559;28;20100;-72
2022/01/03 21:04:28;;;;;;;2.25;0.70;;;;;;;7.54;85.38;99128.88;10445918;28;20073;-72
2022/01/03 21:09:29;;;;;;;1.85;0.70;;;;;;;7.50;85.40;99130.72;10465271;28;20045;-73
2022/01/03 21:14:31;;;;;;;1.17;0.35;;;;;;;7.47;85.71;99137.81;10463061;28;20069;-72
2022/01/03 21:19:34;;;;;;;0.98;0.52;;;;;;;7.39;85.89;99135.44;10464339;28;20099;-71
2022/01/03 21:24:35;;;;;;;1.35;0.40;;;;;;;7.34;86.07;99119.06;10463155;28;20041;-71
2022/01/03 21:29:37;;;;;;;1.15;0.30;;;;;;;7.29;87.76;99118.38;10469761;28;20098;-71
2022/01/03 21:34:40;;;;;;;1.30;0.77;;;;;;;7.28;86.63;99114.06;10473813;28;20037;-71
2022/01/03 21:39:42;;;;;;;0.80;0.35;;;;;;;7.28;87.40;99108.81;10470184;28;20059;-72
2022/01/03 21:44:43;;;;;;;0.95;0.40;;;;;;;7.24;87.85;99094.16;10472217;28;20057;-72
2022/01/03 21:49:45;;;;;;;1.15;0.40;;;;;;;7.28;87.90;99087.91;10471065;28;20048;-71
2022/01/03 21:54:46;;;;;;;2.33;0.50;;;;;;;7.19;89.25;99081.22;10473880;28;20062;-71
2022/01/03 21:59:48;;;;;;;0.98;0.30;;;;;;;7.18;88.94;99063.00;10467034;28;20079;-72
2022/01/03 22:04:49;;;;;;;1.60;0.50;;;;;;;7.29;86.88;99047.78;10468873;28;20041;-72
2022/01/03 22:09:51;;;;;;;0.50;0.20;;;;;;;7.26;87.19;99051.38;10469641;28;20048;-72
2022/01/03 22:14:53;;;;;;;0.60;0.30;;;;;;;7.19;87.05;99072.53;10472398;28;20049;-72
2022/01/03 22:19:54;;;;;;;0.98;0.28;;;;;;;7.30;87.14;99076.50;10469419;28;20045;-71
2022/01/03 22:24:56;;;;;;;1.00;0.30;;;;;;;7.31;87.20;99067.75;10468474;28;20053;-72
2022/01/03 22:29:59;;;;;;;1.38;0.40;;;;;;;7.31;88.12;99053.84;10466268;28;20041;-72
2022/01/03 22:35:01;;;;;;;0.95;0.43;;;;;;;7.20;88.95;99048.97;10459342;22;20041;-73
2022/01/03 22:40:03;;;;;;;0.73;0.30;;;;;;;7.17;88.70;99029.91;10424278;28;20045;-73
2022/01/03 22:45:07;;;;;;;0.98;0.40;;;;;;;7.00;89.91;99026.13;10409100;28;20148;-76
2022/01/03 22:50:13;;;;;;;0.55;0.30;;;;;;;7.10;89.35;99023.19;10425913;28;20042;-76
2022/01/03 22:55:14;;;;;;;0.60;0.30;;;;;;;7.14;88.71;99032.66;10425027;28;20046;-76
2022/01/03 23:00:18;;;;;;;1.35;0.45;;;;;;;7.02;89.66;99021.69;10408697;28;20076;-76
2022/01/03 23:05:20;;;;;;;1.17;0.70;;;;;;;6.81;91.16;99002.34;10409810;28;20050;-76
2022/01/03 23:10:21;;;;;;;1.55;0.70;;;;;;;6.84;92.12;99011.84;10425141;28;20096;-76
2022/01/03 23:15:23;;;;;;;0.88;0.47;;;;;;;6.68;92.58;98994.97;10424672;28;20128;-76
2022/01/03 23:20:25;;;;;;;0.75;0.40;;;;;;;6.67;93.14;99001.09;10424191;28;20041;-76
2022/01/03 23:25:27;;;;;;;0.55;0.35;;;;;;;6.75;93.17;98978.19;10406196;28;20053;-76
2022/01/03 23:30:28;;;;;;;0.85;0.60;;;;;;;7.13;91.84;98973.41;10405842;28;20041;-75
2022/01/03 23:35:32;;;;;;;1.40;0.50;;;;;;;6.94;92.42;98965.38;10424379;28;20136;-75
2022/01/03 23:40:34;;;;;;;1.25;0.60;;;;;;;6.81;93.40;98946.63;10423806;28;20107;-75
2022/01/03 23:45:36;;;;;;;2.03;0.70;;;;;;;6.81;93.61;98930.97;10406970;28;20038;-75
2022/01/03 23:50:37;;;;;;;1.08;0.80;;;;;;;6.96;93.68;98925.22;10424072;28;20041;-77
2022/01/03 23:55:39;;;;;;;0.77;0.70;;;;;;;6.90;93.88;98916.75;10425727;28;20077;-76
